Time;durP1;ratioP1;P1;durP2;ratioP2;P2;SDS_P1;SDS_P2;PMS_P1;PMS_P2;Temp;Humidity;BMP_temperature;BMP_pressure;BME280_temperature;BME280_humidity;BME280_pressure;Samples;Min_cycle;Max_cycle;Signal;HPM_P1;HPM_P2
2023/08/24 00:02:00;;;;;;;10.13;8.07;;;;;18.00;96636.00;;;;8271892;28;20211;-66
2023/08/24 00:06:07;;;;;;;17.33;8.10;;;;;18.00;96631.00;;;;8285173;28;20244;-66
2023/08/24 00:10:10;;;;;;;19.10;8.52;;;;;17.90;96628.00;;;;8253539;28;20221;-66
2023/08/24 00:14:13;;;;;;;14.88;9.20;;;;;17.80;96630.00;;;;8273685;28;20309;-66
2023/08/24 00:18:18;;;;;;;12.77;9.25;;;;;17.80;96636.00;;;;8280325;28;20862;-64
2023/08/24 00:22:25;;;;;;;12.40;9.70;;;;;17.70;96636.00;;;;8268704;28;20210;-65
2023/08/24 00:26:31;;;;;;;13.05;10.35;;;;;17.70;96635.00;;;;8279669;28;20776;-65
2023/08/24 00:30:34;;;;;;;15.43;9.52;;;;;17.70;96641.00;;;;8250097;28;20672;-65
2023/08/24 00:34:38;;;;;;;11.57;8.77;;;;;17.60;96631.00;;;;8276144;28;20194;-65
2023/08/24 00:38:45;;;;;;;12.43;8.77;;;;;17.40;96638.00;;;;8278454;28;20660;-64
2023/08/24 00:42:48;;;;;;;17.30;9.27;;;;;17.30;96627.00;;;;8274401;28;20202;-65
2023/08/24 00:46:56;;;;;;;13.43;9.25;;;;;17.30;96640.00;;;;8280289;28;20690;-65
2023/08/24 00:51:02;;;;;;;12.35;9.27;;;;;17.20;96629.00;;;;8272026;28;20956;-65
2023/08/24 00:55:08;;;;;;;12.55;9.75;;;;;17.10;96629.00;;;;8275469;28;20202;-65
2023/08/24 00:59:12;;;;;;;15.30;9.40;;;;;17.10;96626.00;;;;8267649;28;20236;-65
2023/08/24 01:03:15;;;;;;;12.57;9.57;;;;;17.00;96624.00;;;;8254828;28;20236;-64
2023/08/24 01:07:22;;;;;;;16.20;10.40;;;;;16.90;96623.00;;;;8254086;28;20236;-66
2023/08/24 01:11:33;;;;;;;18.23;10.07;;;;;16.90;96618.00;;;;8254503;28;20190;-65
2023/08/24 01:15:43;;;;;;;13.65;9.63;;;;;16.90;96611.00;;;;8254723;28;20195;-65
2023/08/24 01:19:47;;;;;;;13.00;9.65;;;;;16.90;96617.00;;;;8249182;28;20223;-65
2023/08/24 01:24:00;;;;;;;12.13;10.60;;;;;16.90;96623.00;;;;8257482;28;20230;-65
2023/08/24 01:28:11;;;;;;;14.13;10.40;;;;;16.80;96625.00;;;;8259081;28;20316;-64
2023/08/24 01:32:17;;;;;;;13.20;9.65;;;;;16.80;96616.00;;;;8254993;28;20199;-65
2023/08/24 01:36:20;;;;;;;13.95;9.68;;;;;16.70;96616.00;;;;8251000;28;20282;-64
2023/08/24 01:40:34;;;;;;;12.90;10.68;;;;;16.60;96615.00;;;;8255515;28;20195;-65
2023/08/24 01:44:43;;;;;;;12.43;9.30;;;;;16.60;96607.00;;;;8248163;28;20680;-64
2023/08/24 01:48:47;;;;;;;11.75;9.45;;;;;16.50;96595.00;;;;8260644;28;20226;-64
2023/08/24 01:52:50;;;;;;;16.33;10.57;;;;;16.50;96593.00;;;;8257070;28;20268;-65
2023/08/24 01:56:53;;;;;;;13.55;9.15;;;;;16.40;96590.00;;;;8253585;28;20221;-65
2023/08/24 02:01:03;;;;;;;14.05;9.60;;;;;16.40;96592.00;;;;8263448;28;20207;-64
2023/08/24 02:05:10;;;;;;;14.70;9.75;;;;;16.30;96591.00;;;;8261815;28;20309;-64
2023/08/24 02:09:15;;;;;;;13.48;10.27;;;;;16.30;96590.00;;;;8264263;28;20704;-65
2023/08/24 02:13:21;;;;;;;25.25;10.90;;;;;16.30;96591.00;;;;8252008;28;20230;-65
2023/08/24 02:17:26;;;;;;;43.10;12.27;;;;;16.20;96587.00;;;;8254679;28;20292;-65
2023/08/24 02:21:33;;;;;;;26.08;12.38;;;;;16.30;96583.00;;;;8259277;28;20347;-65
2023/08/24 02:25:43;;;;;;;21.23;10.85;;;;;16.30;96586.00;;;;8251542;28;20652;-65
2023/08/24 02:29:54;;;;;;;14.38;9.85;;;;;16.30;96583.00;;;;8256096;28;20405;-64
2023/08/24 02:34:02;;;;;;;17.20;11.13;;;;;16.30;96579.00;;;;8253232;28;20207;-65
2023/08/24 02:38:09;;;;;;;13.50;10.10;;;;;16.20;96578.00;;;;8254305;28;20293;-65
2023/08/24 02:42:12;;;;;;;14.55;9.52;;;;;16.20;96578.00;;;;8256758;28;20212;-65
2023/08/24 02:46:15;;;;;;;18.05;11.10;;;;;16.10;96568.00;;;;8255337;28;20636;-65
2023/08/24 02:50:20;;;;;;;11.43;8.77;;;;;16.10;96566.00;;;;8254511;28;20257;-65
2023/08/24 02:54:23;;;;;;;10.32;8.00;;;;;16.10;96563.00;;;;8251735;28;20201;-65
2023/08/24 02:58:29;;;;;;;10.90;7.32;;;;;16.10;96568.00;;;;8256659;28;20199;-65
2023/08/24 03:02:32;;;;;;;12.90;9.43;;;;;16.00;96570.00;;;;8324561;22;20859;-65
2023/08/24 03:06:37;;;;;;;12.57;10.18;;;;;16.00;96575.00;;;;8342375;28;20197;-65
2023/08/24 03:10:40;;;;;;;11.18;8.55;;;;;16.00;96583.00;;;;8343828;28;20196;-65
2023/08/24 03:14:43;;;;;;;15.93;9.30;;;;;16.00;96575.00;;;;8343760;28;20263;-65
2023/08/24 03:18:49;;;;;;;13.13;9.25;;;;;16.00;96569.00;;;;8345200;28;20352;-64
2023/08/24 03:22:54;;;;;;;16.95;10.27;;;;;16.00;96569.00;;;;8345500;28;20292;-65
2023/08/24 03:26:57;;;;;;;14.02;10.43;;;;;16.00;96563.00;;;;8344205;28;20337;-65
2023/08/24 03:31:01;;;;;;;16.33;9.18;;;;;15.90;96569.00;;;;8347535;28;20538;-65
2023/08/24 03:35:05;;;;;;;22.98;9.98;;;;;15.90;96573.00;;;;8350994;28;20200;-65
2023/08/24 03:39:09;;;;;;;18.95;9.52;;;;;15.90;96574.00;;;;8340803;28;20215;-65
2023/08/24 03:43:14;;;;;;;17.48;10.23;;;;;15.90;96573.00;;;;8348845;28;20204;-64
2023/08/24 03:47:17;;;;;;;12.27;9.30;;;;;15.80;96573.00;;;;8343420;28;20224;-63
2023/08/24 03:51:20;;;;;;;16.30;9.98;;;;;15.70;96574.00;;;;8332024;28;20201;-63
2023/08/24 03:55:25;;;;;;;16.27;9.18;;;;;15.60;96573.00;;;;8349044;28;20279;-62
2023/08/24 03:59:31;;;;;;;14.90;10.30;;;;;15.60;96567.00;;;;8346164;28;20224;-63
2023/08/24 04:03:36;;;;;;;17.70;10.82;;;;;15.60;96580.00;;;;8319135;28;20300;-63
2023/08/24 04:07:40;;;;;;;16.40;10.75;;;;;15.50;96588.00;;;;8303401;28;20225;-62
2023/08/24 04:11:55;;;;;;;15.82;9.90;;;;;15.60;96581.00;;;;8317288;28;20208;-62
2023/08/24 04:15:58;;;;;;;17.05;10.60;;;;;15.60;96589.00;;;;8314936;28;20224;-62
2023/08/24 04:20:06;;;;;;;39.05;11.27;;;;;15.70;96583.00;;;;8310067;28;20194;-64
2023/08/24 04:24:12;;;;;;;23.20;10.38;;;;;15.70;96582.00;;;;8308675;28;20206;-64
2023/08/24 04:28:16;;;;;;;16.23;9.82;;;;;15.80;96582.00;;;;8315985;28;20304;-64
2023/08/24 04:32:20;;;;;;;14.75;9.65;;;;;15.80;96585.00;;;;8308061;28;20248;-64
2023/08/24 04:36:26;;;;;;;13.02;9.95;;;;;15.80;96578.00;;;;8315826;28;20311;-64
2023/08/24 04:40:29;;;;;;;10.95;9.10;;;;;15.90;96588.00;;;;8300897;28;20201;-64
2023/08/24 04:44:36;;;;;;;18.30;10.48;;;;;16.00;96581.00;;;;8316566;28;20202;-63
2023/08/24 04:48:39;;;;;;;20.23;10.50;;;;;16.00;96581.00;;;;8316956;28;20733;-64
2023/08/24 04:52:42;;;;;;;13.07;9.57;;;;;16.10;96575.00;;;;8313632;28;20208;-65
2023/08/24 04:56:45;;;;;;;21.77;10.25;;;;;16.20;96579.00;;;;8315146;28;20229;-64
2023/08/24 05:00:50;;;;;;;22.02;17.90;;;;;16.30;96575.00;;;;8316098;28;20668;-65
2023/08/24 05:04:54;;;;;;;12.90;9.90;;;;;16.30;96572.00;;;;8306768;28;20282;-64
2023/08/24 05:08:58;;;;;;;14.77;9.48;;;;;16.50;96569.00;;;;8316958;28;20730;-64
2023/08/24 05:13:01;;;;;;;18.80;9.52;;;;;16.60;96561.00;;;;8301637;28;20884;-65
2023/08/24 05:17:07;;;;;;;11.65;9.27;;;;;16.80;96560.00;;;;8301026;28;20206;-64
2023/08/24 05:21:15;;;;;;;12.77;9.30;;;;;16.90;96560.00;;;;8312047;28;20704;-64
2023/08/24 05:25:21;;;;;;;12.05;9.20;;;;;17.10;96569.00;;;;8311687;28;20668;-64
2023/08/24 05:29:29;;;;;;;10.50;7.97;;;;;17.30;96561.00;;;;8316940;28;20574;-64
2023/08/24 05:33:36;;;;;;;12.65;8.45;;;;;17.50;96560.00;;;;8311763;28;20202;-64
2023/08/24 05:37:39;;;;;;;11.95;7.93;;;;;17.60;96573.00;;;;8307869;28;20221;-66
2023/08/24 05:41:45;;;;;;;10.52;8.10;;;;;17.80;96577.00;;;;8298395;28;20197;-66
2023/08/24 05:45:49;;;;;;;9.52;7.43;;;;;17.90;96583.00;;;;8314704;28;20199;-64
2023/08/24 05:49:54;;;;;;;9.10;6.88;;;;;18.10;96592.00;;;;8306540;28;20671;-65
2023/08/24 05:53:59;;;;;;;12.25;7.63;;;;;18.30;96590.00;;;;8307937;28;20710;-65
2023/08/24 05:58:02;;;;;;;11.10;7.80;;;;;18.60;96583.00;;;;8315717;28;20210;-64
2023/08/24 06:02:05;;;;;;;9.90;7.53;;;;;18.80;96575.00;;;;8304394;28;20244;-64
2023/08/24 06:06:12;;;;;;;13.68;6.85;;;;;19.00;96576.00;;;;8302036;28;20202;-64
2023/08/24 06:10:18;;;;;;;7.55;6.40;;;;;19.30;96584.00;;;;8313556;28;20736;-64
2023/08/24 06:14:23;;;;;;;9.70;6.47;;;;;19.50;96590.00;;;;8314944;28;20231;-64
2023/08/24 06:18:26;;;;;;;10.20;6.40;;;;;19.90;96585.00;;;;8315122;28;20263;-64
2023/08/24 06:22:35;;;;;;;7.00;6.18;;;;;20.20;96586.00;;;;8313099;28;20193;-64
2023/08/24 06:26:41;;;;;;;13.30;5.55;;;;;20.60;96587.00;;;;8310346;28;20193;-64
2023/08/24 06:30:47;;;;;;;11.50;5.97;;;;;21.10;96594.00;;;;8314213;28;20734;-65
2023/08/24 06:34:54;;;;;;;9.52;5.82;;;;;21.50;96589.00;;;;8313645;28;20193;-65
2023/08/24 06:39:04;;;;;;;9.18;5.70;;;;;21.80;96583.00;;;;8309912;28;20991;-63
2023/08/24 06:43:08;;;;;;;6.68;5.70;;;;;22.10;96593.00;;;;8311417;28;20208;-64
2023/08/24 06:47:14;;;;;;;9.00;5.05;;;;;22.30;96600.00;;;;8310377;28;20811;-64
2023/08/24 06:51:17;;;;;;;9.57;4.80;;;;;22.70;96604.00;;;;8307360;28;20225;-64
2023/08/24 06:55:22;;;;;;;8.95;5.47;;;;;23.20;96594.00;;;;8311914;28;20228;-65
2023/08/24 06:59:27;;;;;;;5.63;5.07;;;;;23.60;96590.00;;;;8311561;28;20212;-65
2023/08/24 07:03:32;;;;;;;9.60;4.82;;;;;24.00;96576.00;;;;8317994;28;20311;-63
2023/08/24 07:07:39;;;;;;;5.00;4.50;;;;;24.70;96573.00;;;;8319391;28;20312;-64
2023/08/24 07:11:43;;;;;;;9.38;4.57;;;;;25.40;96577.00;;;;8306707;28;20261;-64
2023/08/24 07:15:56;;;;;;;9.55;4.40;;;;;26.00;96566.00;;;;8300756;28;20208;-64
2023/08/24 07:20:01;;;;;;;9.35;4.63;;;;;26.40;96564.00;;;;8311995;28;20206;-65
2023/08/24 07:24:07;;;;;;;6.03;4.90;;;;;26.90;96549.00;;;;8312198;28;20210;-64
2023/08/24 07:28:14;;;;;;;9.68;4.78;;;;;27.60;96536.00;;;;8317323;28;20241;-64
2023/08/24 07:32:29;;;;;;;4.93;4.13;;;;;27.90;96518.00;;;;8297418;28;20255;-65
2023/08/24 07:36:32;;;;;;;8.02;4.32;;;;;28.80;96500.00;;;;8318084;28;20203;-64
2023/08/24 07:40:37;;;;;;;6.82;4.28;;;;;29.00;96519.00;;;;8297786;28;20659;-64
2023/08/24 07:44:45;;;;;;;4.30;3.90;;;;;28.80;96505.00;;;;8309523;28;20206;-65
2023/08/24 07:48:48;;;;;;;10.10;3.95;;;;;28.80;96510.00;;;;8299602;28;20224;-64
2023/08/24 07:52:52;;;;;;;9.65;4.35;;;;;28.60;96506.00;;;;8310237;28;20208;-65
2023/08/24 07:56:59;;;;;;;10.05;4.63;;;;;28.50;96524.00;;;;8313137;28;20205;-65
2023/08/24 08:01:04;;;;;;;4.72;4.05;;;;;28.90;96530.00;;;;8316430;28;20505;-64
2023/08/24 08:05:10;;;;;;;11.10;3.63;;;;;29.50;96542.00;;;;8313931;28;20209;-65
2023/08/24 08:09:15;;;;;;;3.97;3.58;;;;;29.60;96552.00;;;;8311170;28;20225;-64
2023/08/24 08:13:19;;;;;;;8.50;3.92;;;;;30.50;96553.00;;;;8313219;28;20210;-65
2023/08/24 08:17:24;;;;;;;4.43;3.88;;;;;31.10;96562.00;;;;8316323;28;20727;-68
2023/08/24 08:21:27;;;;;;;11.05;3.70;;;;;31.40;96563.00;;;;8315272;28;20198;-65
2023/08/24 08:25:34;;;;;;;5.20;3.45;;;;;31.80;96581.00;;;;8314676;28;20201;-65
2023/08/24 08:29:37;;;;;;;5.43;3.65;;;;;32.00;96578.00;;;;8318166;28;20316;-66
2023/08/24 08:33:45;;;;;;;6.85;3.58;;;;;32.30;96587.00;;;;8315947;28;20216;-65
2023/08/24 08:37:51;;;;;;;3.55;3.30;;;;;32.50;96586.00;;;;8317299;28;20207;-64
2023/08/24 08:42:02;;;;;;;7.47;3.90;;;;;32.60;96587.00;;;;8316584;28;20263;-65
2023/08/24 08:46:08;;;;;;;6.53;3.90;;;;;33.00;96587.00;;;;8296041;28;20212;-65
2023/08/24 08:50:14;;;;;;;5.40;3.67;;;;;33.10;96578.00;;;;8316484;28;20229;-66
2023/08/24 08:54:17;;;;;;;4.72;3.58;;;;;33.10;96583.00;;;;8316289;28;20688;-65
2023/08/24 08:58:23;;;;;;;3.85;3.47;;;;;33.20;96577.00;;;;8309910;28;20204;-65
2023/08/24 09:02:29;;;;;;;5.32;3.35;;;;;33.00;96573.00;;;;8310317;28;20380;-65
2023/08/24 09:06:36;;;;;;;5.95;3.45;;;;;33.30;96580.00;;;;8315724;28;20555;-66
2023/08/24 09:10:39;;;;;;;4.05;3.70;;;;;33.50;96584.00;;;;8316140;28;20225;-65
2023/08/24 09:14:42;;;;;;;6.88;3.70;;;;;33.40;96588.00;;;;8315845;28;20208;-65
2023/08/24 09:18:47;;;;;;;5.13;3.13;;;;;33.80;96582.00;;;;8309499;28;20202;-65
2023/08/24 09:22:56;;;;;;;8.45;3.78;;;;;34.30;96575.00;;;;8314801;28;20244;-65
2023/08/24 09:27:00;;;;;;;4.55;3.17;;;;;34.40;96566.00;;;;8308285;28;20205;-65
2023/08/24 09:31:03;;;;;;;10.90;3.35;;;;;34.30;96559.00;;;;8315384;28;20319;-65
2023/08/24 09:35:13;;;;;;;6.28;3.13;;;;;34.50;96545.00;;;;8314878;28;20706;-66
2023/08/24 09:39:19;;;;;;;7.20;3.13;;;;;34.80;96541.00;;;;8315012;28;20209;-66
2023/08/24 09:43:23;;;;;;;3.38;2.90;;;;;35.00;96518.00;;;;8310887;28;20225;-66
2023/08/24 09:47:31;;;;;;;5.82;3.00;;;;;35.40;96529.00;;;;8310232;28;20220;-66
2023/08/24 09:51:36;;;;;;;4.80;3.30;;;;;35.50;96525.00;;;;8311058;28;20249;-65
2023/08/24 09:55:45;;;;;;;4.50;2.65;;;;;35.30;96515.00;;;;8310989;28;20681;-65
2023/08/24 09:59:50;;;;;;;4.13;2.92;;;;;35.50;96515.00;;;;8313967;28;20673;-65
2023/08/24 10:03:57;;;;;;;5.03;2.90;;;;;34.80;96506.00;;;;8291735;28;20241;-66
2023/08/24 10:08:01;;;;;;;6.95;3.45;;;;;34.70;96499.00;;;;8311973;28;20190;-66
2023/08/24 10:12:07;;;;;;;7.15;3.45;;;;;35.00;96489.00;;;;8305466;28;20335;-67
2023/08/24 10:16:13;;;;;;;4.90;2.97;;;;;35.10;96477.00;;;;8307431;28;20201;-65
2023/08/24 10:20:19;;;;;;;9.07;2.80;;;;;35.20;96469.00;;;;8310156;28;20248;-66
2023/08/24 10:24:25;;;;;;;6.32;3.08;;;;;35.30;96470.00;;;;8310665;28;20202;-66
2023/08/24 10:28:32;;;;;;;7.22;3.15;;;;;35.60;96468.00;;;;8307111;28;20902;-66
2023/08/24 10:32:35;;;;;;;7.35;3.50;;;;;35.90;96478.00;;;;8302861;28;20924;-66
2023/08/24 10:36:39;;;;;;;4.55;2.80;;;;;36.50;96466.00;;;;8307067;28;20194;-66
2023/08/24 10:40:46;;;;;;;4.47;2.72;;;;;36.70;96467.00;;;;8294894;28;20652;-66
2023/08/24 10:44:52;;;;;;;4.53;2.65;;;;;36.90;96464.00;;;;8309847;28;20721;-66
2023/08/24 10:48:58;;;;;;;3.92;2.70;;;;;37.20;96464.00;;;;8311538;28;20228;-66
2023/08/24 10:53:10;;;;;;;8.05;3.08;;;;;37.50;96461.00;;;;8307058;28;20831;-66
2023/08/24 10:57:19;;;;;;;6.03;3.00;;;;;38.10;96458.00;;;;8309165;28;20887;-67
2023/08/24 11:01:24;;;;;;;7.75;3.30;;;;;38.30;96455.00;;;;8311521;28;20547;-67
2023/08/24 11:05:30;;;;;;;7.22;3.35;;;;;38.20;96451.00;;;;8306765;28;20716;-67
2023/08/24 11:09:47;;;;;;;4.32;3.10;;;;;38.00;96434.00;;;;8310438;28;20205;-67
2023/08/24 11:14:19;;;;;;;7.40;3.17;;;;;38.00;96427.00;;;;8308428;28;20197;-67
2023/08/24 11:18:26;;;;;;;5.88;3.17;;;;;38.10;96415.00;;;;8306613;28;20883;-67
2023/08/24 11:22:31;;;;;;;3.08;2.75;;;;;38.00;96408.00;;;;8309018;28;20225;-67
2023/08/24 11:26:35;;;;;;;3.47;3.17;;;;;38.00;96406.00;;;;8308316;28;20864;-67
2023/08/24 11:30:38;;;;;;;5.50;3.00;;;;;38.10;96410.00;;;;8309741;28;20236;-67
2023/08/24 11:34:51;;;;;;;7.15;2.97;;;;;38.50;96397.00;;;;8308048;28;20828;-67
2023/08/24 11:38:57;;;;;;;5.13;3.03;;;;;38.90;96387.00;;;;8306047;28;20263;-67
2023/08/24 11:43:00;;;;;;;5.15;2.70;;;;;39.00;96389.00;;;;8307322;28;20226;-67
2023/08/24 11:47:04;;;;;;;7.07;2.90;;;;;38.50;96389.00;;;;8311779;28;20205;-67
2023/08/24 11:51:12;;;;;;;19.92;3.70;;;;;37.80;96387.00;;;;8313732;28;20225;-67
2023/08/24 11:55:22;;;;;;;3.33;2.78;;;;;37.00;96389.00;;;;8313068;28;20201;-66
2023/08/24 11:59:29;;;;;;;4.60;3.30;;;;;36.60;96387.00;;;;8314248;28;20201;-67
2023/08/24 12:03:42;;;;;;;5.47;3.40;;;;;36.20;96388.00;;;;8305828;28;20237;-67
2023/08/24 12:07:50;;;;;;;5.45;3.30;;;;;35.90;96389.00;;;;8314893;28;20328;-66
2023/08/24 12:11:57;;;;;;;4.18;2.92;;;;;35.40;96386.00;;;;8315332;28;20227;-66
2023/08/24 12:16:01;;;;;;;6.15;3.05;;;;;34.90;96382.00;;;;8313038;28;20201;-68
2023/08/24 12:20:06;;;;;;;7.85;4.18;;;;;34.70;96378.00;;;;8290176;28;20849;-68
2023/08/24 12:24:21;;;;;;;6.72;3.35;;;;;34.60;96381.00;;;;8314523;28;20201;-67
2023/08/24 12:28:25;;;;;;;5.25;3.60;;;;;34.60;96374.00;;;;8316731;28;20193;-67
2023/08/24 12:32:46;;;;;;;5.47;3.60;;;;;34.30;96373.00;;;;8312916;28;20621;-67
2023/08/24 12:36:49;;;;;;;3.58;3.08;;;;;34.20;96371.00;;;;8298361;28;20695;-67
2023/08/24 12:40:57;;;;;;;4.32;3.22;;;;;34.10;96360.00;;;;8292421;28;20209;-68
2023/08/24 12:45:01;;;;;;;6.47;3.33;;;;;34.20;96348.00;;;;8315571;28;20247;-67
2023/08/24 12:49:05;;;;;;;8.88;3.58;;;;;34.40;96344.00;;;;8308254;28;20727;-67
2023/08/24 12:53:08;;;;;;;6.22;3.65;;;;;34.40;96341.00;;;;8312761;28;20312;-68
2023/08/24 12:57:13;;;;;;;5.53;3.72;;;;;34.20;96325.00;;;;8310313;28;20288;-68
2023/08/24 13:01:18;;;;;;;3.55;3.25;;;;;34.10;96319.00;;;;8311482;28;20237;-68
2023/08/24 13:05:23;;;;;;;3.67;3.33;;;;;34.60;96314.00;;;;8313600;28;20335;-68
2023/08/24 13:09:31;;;;;;;5.80;3.13;;;;;34.80;96314.00;;;;8313508;28;20229;-68
2023/08/24 13:13:38;;;;;;;4.35;3.05;;;;;34.80;96301.00;;;;8313562;28;20943;-67
2023/08/24 13:17:43;;;;;;;4.07;3.25;;;;;35.00;96302.00;;;;8310316;28;20555;-68
2023/08/24 13:21:52;;;;;;;6.03;3.55;;;;;35.20;96292.00;;;;8310428;28;20255;-67
2023/08/24 13:25:59;;;;;;;6.55;3.58;;;;;35.50;96287.00;;;;8313589;28;20205;-68
2023/08/24 13:30:05;;;;;;;7.82;3.60;;;;;35.60;96280.00;;;;8311092;28;20236;-68
2023/08/24 13:34:20;;;;;;;7.30;3.40;;;;;35.80;96265.00;;;;8311644;28;20201;-68
2023/08/24 13:38:25;;;;;;;6.22;3.42;;;;;36.10;96253.00;;;;8314147;28;20201;-68
2023/08/24 13:42:40;;;;;;;5.03;3.25;;;;;36.40;96244.00;;;;8312813;28;20288;-68
2023/08/24 13:46:44;;;;;;;6.68;3.30;;;;;36.60;96242.00;;;;8301544;28;20210;-67
2023/08/24 13:50:51;;;;;;;7.53;3.13;;;;;36.60;96236.00;;;;8310630;28;20560;-68
2023/08/24 13:54:55;;;;;;;7.20;3.85;;;;;36.60;96238.00;;;;8312725;28;20293;-68
2023/08/24 13:59:13;;;;;;;10.38;3.55;;;;;36.90;96230.00;;;;8312213;28;20200;-68
2023/08/24 14:03:17;;;;;;;6.90;3.50;;;;;37.10;96232.00;;;;8309468;28;20999;-68
2023/08/24 14:07:22;;;;;;;7.30;3.60;;;;;37.10;96222.00;;;;8305894;28;20238;-68
2023/08/24 14:11:31;;;;;;;7.93;3.25;;;;;37.20;96213.00;;;;8308072;28;20586;-68
2023/08/24 14:15:34;;;;;;;6.45;3.20;;;;;37.20;96213.00;;;;8311970;28;20204;-67
2023/08/24 14:19:41;;;;;;;6.10;3.00;;;;;37.40;96213.00;;;;8296955;28;20240;-67
2023/08/24 14:23:50;;;;;;;5.35;3.20;;;;;37.40;96222.00;;;;8312953;28;20202;-68
2023/08/24 14:27:57;;;;;;;5.57;3.67;;;;;37.20;96212.00;;;;8295908;28;20208;-68
2023/08/24 14:32:09;;;;;;;5.55;3.30;;;;;36.70;96201.00;;;;8309238;28;20222;-68
2023/08/24 14:36:15;;;;;;;6.50;3.65;;;;;36.20;96199.00;;;;8308759;28;20207;-65
2023/08/24 14:40:19;;;;;;;6.57;3.58;;;;;35.80;96200.00;;;;8303617;28;20229;-65
2023/08/24 14:44:24;;;;;;;7.25;3.80;;;;;35.50;96194.00;;;;8313299;28;20655;-64
2023/08/24 14:48:30;;;;;;;7.90;3.70;;;;;35.40;96189.00;;;;8312211;28;20288;-65
2023/08/24 14:52:36;;;;;;;10.52;3.85;;;;;35.70;96180.00;;;;8302914;28;20228;-65
2023/08/24 14:56:40;;;;;;;4.18;3.30;;;;;36.30;96189.00;;;;8303340;28;20211;-65
2023/08/24 15:00:45;;;;;;;7.22;3.30;;;;;36.80;96192.00;;;;8310225;28;20293;-65
2023/08/24 15:04:50;;;;;;;6.30;3.72;;;;;36.80;96190.00;;;;8304559;28;20232;-66
2023/08/24 15:08:59;;;;;;;6.38;3.25;;;;;36.60;96187.00;;;;8306068;28;20297;-66
2023/08/24 15:13:08;;;;;;;10.77;4.10;;;;;36.20;96195.00;;;;8309895;28;20237;-66
2023/08/24 15:17:13;;;;;;;5.85;3.60;;;;;35.70;96186.00;;;;8304349;28;20201;-65
2023/08/24 15:21:21;;;;;;;6.63;3.35;;;;;35.50;96174.00;;;;8309353;28;20206;-65
2023/08/24 15:25:25;;;;;;;5.00;3.58;;;;;35.20;96168.00;;;;8311123;28;20202;-65
2023/08/24 15:29:29;;;;;;;16.23;4.03;;;;;35.20;96163.00;;;;8314887;28;20679;-65
2023/08/24 15:33:32;;;;;;;5.57;3.55;;;;;35.30;96168.00;;;;8316369;28;20233;-65
2023/08/24 15:37:35;;;;;;;24.70;3.95;;;;;35.50;96160.00;;;;8320634;28;20202;-65
2023/08/24 15:41:40;;;;;;;8.18;3.30;;;;;35.60;96152.00;;;;8317279;28;20212;-65
2023/08/24 15:45:46;;;;;;;6.13;3.35;;;;;35.80;96151.00;;;;8317431;28;20205;-65
2023/08/24 15:49:51;;;;;;;30.48;6.03;;;;;35.90;96155.00;;;;8304131;28;20272;-66
2023/08/24 15:53:55;;;;;;;6.18;3.70;;;;;35.90;96156.00;;;;8310441;28;20264;-65
2023/08/24 15:58:06;;;;;;;8.65;3.30;;;;;35.60;96149.00;;;;8301133;28;20300;-65
2023/08/24 16:02:09;;;;;;;9.38;4.20;;;;;35.30;96157.00;;;;8312031;28;20240;-65
2023/08/24 16:06:12;;;;;;;5.93;3.42;;;;;34.90;96157.00;;;;8312104;28;20509;-65
2023/08/24 16:10:17;;;;;;;9.80;3.60;;;;;34.70;96156.00;;;;8302072;28;20202;-65
2023/08/24 16:14:23;;;;;;;5.93;3.70;;;;;34.60;96162.00;;;;8311885;28;20221;-65
2023/08/24 16:18:27;;;;;;;6.22;3.78;;;;;34.40;96165.00;;;;8309123;28;20749;-65
2023/08/24 16:22:34;;;;;;;5.35;3.97;;;;;33.90;96164.00;;;;8308243;28;20208;-64
2023/08/24 16:26:43;;;;;;;9.10;3.70;;;;;33.60;96164.00;;;;8310250;28;20285;-64
2023/08/24 16:30:51;;;;;;;9.75;4.03;;;;;33.20;96153.00;;;;8310271;28;20284;-64
2023/08/24 16:34:54;;;;;;;8.32;3.63;;;;;32.80;96148.00;;;;8301221;28;20233;-64
2023/08/24 16:38:57;;;;;;;7.45;3.55;;;;;32.50;96151.00;;;;8310363;28;20189;-64
2023/08/24 16:43:05;;;;;;;10.63;3.47;;;;;32.30;96144.00;;;;8304647;28;20209;-64
2023/08/24 16:47:12;;;;;;;8.73;3.72;;;;;32.10;96140.00;;;;8310187;28;20202;-64
2023/08/24 16:51:15;;;;;;;8.43;3.38;;;;;31.90;96134.00;;;;8309005;28;20197;-64
2023/08/24 16:55:22;;;;;;;5.43;3.80;;;;;31.70;96148.00;;;;8303918;28;20235;-64
2023/08/24 16:59:25;;;;;;;8.93;3.95;;;;;31.50;96165.00;;;;8308175;28;20205;-64
2023/08/24 17:03:31;;;;;;;12.20;3.65;;;;;31.40;96161.00;;;;8311861;28;20320;-64
2023/08/24 17:07:39;;;;;;;8.65;4.10;;;;;31.20;96173.00;;;;8302335;28;20832;-64
2023/08/24 17:11:42;;;;;;;14.30;4.28;;;;;31.00;96184.00;;;;8309378;28;20240;-64
2023/08/24 17:15:52;;;;;;;9.20;3.78;;;;;30.80;96192.00;;;;8306019;28;20281;-64
2023/08/24 17:19:58;;;;;;;12.52;4.32;;;;;30.60;96190.00;;;;8312960;28;20643;-64
2023/08/24 17:24:02;;;;;;;8.63;4.22;;;;;30.40;96211.00;;;;8310687;28;20264;-64
2023/08/24 17:28:08;;;;;;;8.20;4.22;;;;;30.20;96207.00;;;;8306951;28;20202;-64
2023/08/24 17:32:14;;;;;;;5.03;3.97;;;;;29.90;96206.00;;;;8301625;28;21028;-64
2023/08/24 17:36:25;;;;;;;10.32;3.83;;;;;29.60;96211.00;;;;8314181;28;20949;-63
2023/08/24 17:40:28;;;;;;;9.85;3.90;;;;;29.40;96230.00;;;;8308772;28;20570;-64
2023/08/24 17:44:32;;;;;;;4.88;3.78;;;;;29.20;96213.00;;;;8311057;28;20623;-64
2023/08/24 17:48:35;;;;;;;8.20;3.80;;;;;29.10;96220.00;;;;8303342;28;20206;-64
2023/08/24 17:52:40;;;;;;;5.68;3.58;;;;;29.10;96241.00;;;;8308858;28;20769;-64
2023/08/24 17:56:45;;;;;;;7.60;3.50;;;;;29.10;96233.00;;;;8315053;28;20212;-63
2023/08/24 18:00:50;;;;;;;17.38;4.60;;;;;29.10;96227.00;;;;8310651;28;20276;-64
2023/08/24 18:04:54;;;;;;;7.72;3.65;;;;;29.10;96252.00;;;;8305501;28;20892;-64
2023/08/24 18:09:03;;;;;;;15.25;4.05;;;;;28.80;96248.00;;;;8291944;28;20280;-64
2023/08/24 18:13:08;;;;;;;10.05;3.70;;;;;28.60;96268.00;;;;8304385;28;20757;-64
2023/08/24 18:17:14;;;;;;;10.77;3.72;;;;;28.40;96223.00;;;;8305340;28;20205;-64
2023/08/24 18:21:17;;;;;;;12.23;4.32;;;;;28.20;96193.00;;;;8297135;28;20197;-64
2023/08/24 18:25:25;;;;;;;11.48;4.60;;;;;28.10;96175.00;;;;8309505;28;20911;-64
2023/08/24 18:29:29;;;;;;;14.63;4.43;;;;;27.80;96156.00;;;;8301889;28;20201;-65
2023/08/24 18:33:32;;;;;;;8.90;4.43;;;;;27.70;96158.00;;;;8295774;28;20225;-64
2023/08/24 18:37:38;;;;;;;12.23;3.88;;;;;27.60;96132.00;;;;8291483;28;20208;-66
2023/08/24 18:41:45;;;;;;;8.40;4.18;;;;;27.60;96127.00;;;;8308670;28;20683;-65
2023/08/24 18:45:54;;;;;;;6.60;3.88;;;;;27.60;96101.00;;;;8306659;28;20703;-66
2023/08/24 18:50:00;;;;;;;5.65;3.60;;;;;27.60;96076.00;;;;8304131;28;20815;-65
2023/08/24 18:54:06;;;;;;;4.68;3.67;;;;;27.60;96055.00;;;;8316096;28;20225;-63
2023/08/24 18:58:13;;;;;;;12.35;4.30;;;;;27.60;96057.00;;;;8312133;28;20710;-63
2023/08/24 19:02:20;;;;;;;5.10;3.70;;;;;27.50;96044.00;;;;8314666;28;20229;-64
2023/08/24 19:06:25;;;;;;;10.65;4.60;;;;;27.40;96028.00;;;;8296967;28;20302;-63
2023/08/24 19:10:43;;;;;;;14.02;4.20;;;;;27.30;96021.00;;;;8311906;28;20205;-63
2023/08/24 19:14:47;;;;;;;9.68;4.18;;;;;27.20;96021.00;;;;8302641;28;20256;-63
2023/08/24 19:18:51;;;;;;;9.32;4.35;;;;;27.10;96023.00;;;;8307099;28;20222;-64
2023/08/24 19:22:54;;;;;;;8.13;4.22;;;;;27.00;96016.00;;;;8314110;28;20943;-63
2023/08/24 19:26:57;;;;;;;5.82;3.80;;;;;26.90;96013.00;;;;8314436;28;20698;-63
2023/08/24 19:31:06;;;;;;;6.70;4.38;;;;;26.80;96027.00;;;;8311107;28;20220;-64
2023/08/24 19:35:09;;;;;;;7.43;4.20;;;;;26.70;96030.00;;;;8310819;28;20321;-64
2023/08/24 19:39:12;;;;;;;15.68;4.50;;;;;26.50;96055.00;;;;8316831;28;20288;-63
2023/08/24 19:43:15;;;;;;;6.65;3.95;;;;;26.20;96045.00;;;;8314502;28;20202;-63
2023/08/24 19:47:20;;;;;;;10.45;4.35;;;;;26.00;96048.00;;;;8309149;28;20863;-63
2023/08/24 19:51:26;;;;;;;8.68;4.70;;;;;25.90;96057.00;;;;8316707;28;20236;-64
2023/08/24 19:55:29;;;;;;;10.65;3.88;;;;;25.80;96072.00;;;;8311682;28;20235;-63
2023/08/24 19:59:35;;;;;;;10.50;4.50;;;;;25.60;96087.00;;;;8293004;28;20225;-64
2023/08/24 20:03:40;;;;;;;10.35;4.20;;;;;25.50;96076.00;;;;8275157;28;20226;-64
2023/08/24 20:07:48;;;;;;;15.45;4.50;;;;;25.50;96073.00;;;;8272136;28;20556;-65
2023/08/24 20:11:53;;;;;;;6.95;4.80;;;;;25.50;96063.00;;;;8261789;28;20225;-64
2023/08/24 20:16:05;;;;;;;9.45;4.60;;;;;25.40;96079.00;;;;8285290;28;20234;-64
2023/08/24 20:20:17;;;;;;;10.02;4.28;;;;;25.30;96079.00;;;;8280272;28;20202;-63
2023/08/24 20:24:23;;;;;;;15.52;4.63;;;;;25.30;96098.00;;;;8280833;28;20318;-64